sensor_id;sensor_type;location;lat;lon;timestamp;P1;durP1;ratioP1;P2;durP2;ratioP2
18793;SDS011;29610;49.022;12.114;2023-05-07T00:00:22;11.67;;;6.27;;
18793;SDS011;29610;49.022;12.114;2023-05-07T00:03:11;14.63;;;7.00;;
18793;SDS011;29610;49.022;12.114;2023-05-07T00:06:00;13.40;;;6.60;;
18793;SDS011;29610;49.022;12.114;2023-05-07T00:08:51;11.77;;;6.27;;
18793;SDS011;29610;49.022;12.114;2023-05-07T00:11:39;16.03;;;7.50;;
18793;SDS011;29610;49.022;12.114;2023-05-07T00:14:28;13.33;;;7.27;;
18793;SDS011;29610;49.022;12.114;2023-05-07T00:17:17;13.07;;;7.10;;
18793;SDS011;29610;49.022;12.114;2023-05-07T00:20:06;15.03;;;7.20;;
18793;SDS011;29610;49.022;12.114;2023-05-07T00:22:57;12.73;;;7.00;;
18793;SDS011;29610;49.022;12.114;2023-05-07T00:25:47;11.90;;;6.03;;
18793;SDS011;29610;49.022;12.114;2023-05-07T00:28:36;20.50;;;7.80;;
18793;SDS011;29610;49.022;12.114;2023-05-07T00:31:26;11.63;;;6.50;;
18793;SDS011;29610;49.022;12.114;2023-05-07T00:34:14;14.70;;;7.40;;
18793;SDS011;29610;49.022;12.114;2023-05-07T00:37:03;15.27;;;7.10;;
18793;SDS011;29610;49.022;12.114;2023-05-07T00:39:54;14.33;;;6.90;;
18793;SDS011;29610;49.022;12.114;2023-05-07T00:42:44;12.03;;;6.73;;
18793;SDS011;29610;49.022;12.114;2023-05-07T00:45:34;13.07;;;6.67;;
18793;SDS011;29610;49.022;12.114;2023-05-07T00:48:23;14.40;;;6.50;;
18793;SDS011;29610;49.022;12.114;2023-05-07T00:51:13;12.63;;;7.20;;
18793;SDS011;29610;49.022;12.114;2023-05-07T00:54:02;10.50;;;5.90;;
18793;SDS011;29610;49.022;12.114;2023-05-07T00:56:51;17.77;;;6.70;;
18793;SDS011;29610;49.022;12.114;2023-05-07T00:59:44;12.27;;;6.40;;
18793;SDS011;29610;49.022;12.114;2023-05-07T01:02:33;13.17;;;5.90;;
18793;SDS011;29610;49.022;12.114;2023-05-07T01:05:23;11.27;;;5.60;;
18793;SDS011;29610;49.022;12.114;2023-05-07T01:08:14;12.13;;;6.43;;
18793;SDS011;29610;49.022;12.114;2023-05-07T01:11:04;13.33;;;7.30;;
18793;SDS011;29610;49.022;12.114;2023-05-07T01:13:54;12.47;;;6.33;;
18793;SDS011;29610;49.022;12.114;2023-05-07T01:16:45;12.70;;;6.63;;
18793;SDS011;29610;49.022;12.114;2023-05-07T01:19:35;15.43;;;7.57;;
18793;SDS011;29610;49.022;12.114;2023-05-07T01:22:30;15.30;;;8.27;;
18793;SDS011;29610;49.022;12.114;2023-05-07T01:25:21;21.23;;;7.53;;
18793;SDS011;29610;49.022;12.114;2023-05-07T01:28:13;13.20;;;7.23;;
18793;SDS011;29610;49.022;12.114;2023-05-07T01:31:03;14.30;;;6.77;;
18793;SDS011;29610;49.022;12.114;2023-05-07T01:33:54;14.03;;;6.90;;
18793;SDS011;29610;49.022;12.114;2023-05-07T01:36:47;14.90;;;7.77;;
18793;SDS011;29610;49.022;12.114;2023-05-07T01:39:38;12.17;;;7.63;;
18793;SDS011;29610;49.022;12.114;2023-05-07T01:42:28;13.57;;;7.23;;
18793;SDS011;29610;49.022;12.114;2023-05-07T01:45:18;13.90;;;7.87;;
18793;SDS011;29610;49.022;12.114;2023-05-07T01:48:10;16.30;;;9.07;;
18793;SDS011;29610;49.022;12.114;2023-05-07T01:51:02;13.97;;;8.00;;
18793;SDS011;29610;49.022;12.114;2023-05-07T01:53:52;14.60;;;7.33;;
18793;SDS011;29610;49.022;12.114;2023-05-07T01:56:42;17.13;;;7.67;;
18793;SDS011;29610;49.022;12.114;2023-05-07T01:59:31;14.20;;;8.30;;
18793;SDS011;29610;49.022;12.114;2023-05-07T02:02:20;18.23;;;9.50;;
18793;SDS011;29610;49.022;12.114;2023-05-07T02:05:09;15.37;;;9.10;;
18793;SDS011;29610;49.022;12.114;2023-05-07T02:08:00;16.60;;;8.43;;
18793;SDS011;29610;49.022;12.114;2023-05-07T02:10:50;15.20;;;8.80;;
18793;SDS011;29610;49.022;12.114;2023-05-07T02:13:41;16.83;;;8.60;;
18793;SDS011;29610;49.022;12.114;2023-05-07T02:16:30;16.40;;;9.27;;
18793;SDS011;29610;49.022;12.114;2023-05-07T02:19:20;16.00;;;8.20;;
18793;SDS011;29610;49.022;12.114;2023-05-07T02:22:09;14.87;;;8.90;;
18793;SDS011;29610;49.022;12.114;2023-05-07T02:24:58;13.77;;;8.53;;
18793;SDS011;29610;49.022;12.114;2023-05-07T02:27:47;16.57;;;8.37;;
18793;SDS011;29610;49.022;12.114;2023-05-07T02:30:38;15.33;;;8.53;;
18793;SDS011;29610;49.022;12.114;2023-05-07T02:33:27;14.93;;;8.10;;
18793;SDS011;29610;49.022;12.114;2023-05-07T02:36:17;19.00;;;9.50;;
18793;SDS011;29610;49.022;12.114;2023-05-07T02:39:14;15.80;;;8.40;;
18793;SDS011;29610;49.022;12.114;2023-05-07T02:42:04;16.60;;;9.73;;
18793;SDS011;29610;49.022;12.114;2023-05-07T02:44:53;16.57;;;8.97;;
18793;SDS011;29610;49.022;12.114;2023-05-07T02:47:43;22.43;;;8.93;;
18793;SDS011;29610;49.022;12.114;2023-05-07T02:50:33;18.13;;;9.13;;
18793;SDS011;29610;49.022;12.114;2023-05-07T02:53:22;18.10;;;9.10;;
18793;SDS011;29610;49.022;12.114;2023-05-07T02:56:12;15.80;;;9.37;;
18793;SDS011;29610;49.022;12.114;2023-05-07T02:59:01;18.03;;;10.80;;
18793;SDS011;29610;49.022;12.114;2023-05-07T03:01:53;20.40;;;11.37;;
18793;SDS011;29610;49.022;12.114;2023-05-07T03:04:43;19.10;;;10.90;;
18793;SDS011;29610;49.022;12.114;2023-05-07T03:07:32;17.87;;;11.43;;
18793;SDS011;29610;49.022;12.114;2023-05-07T03:10:21;18.60;;;10.87;;
18793;SDS011;29610;49.022;12.114;2023-05-07T03:13:10;18.53;;;10.30;;
18793;SDS011;29610;49.022;12.114;2023-05-07T03:15:59;19.03;;;10.23;;
18793;SDS011;29610;49.022;12.114;2023-05-07T03:18:49;13.77;;;8.57;;
18793;SDS011;29610;49.022;12.114;2023-05-07T03:21:39;17.60;;;10.17;;
18793;SDS011;29610;49.022;12.114;2023-05-07T03:24:28;15.70;;;9.87;;
18793;SDS011;29610;49.022;12.114;2023-05-07T03:27:17;17.40;;;10.30;;
18793;SDS011;29610;49.022;12.114;2023-05-07T03:30:07;20.53;;;9.63;;
18793;SDS011;29610;49.022;12.114;2023-05-07T03:32:58;19.70;;;11.00;;
18793;SDS011;29610;49.022;12.114;2023-05-07T03:35:47;18.00;;;10.50;;
18793;SDS011;29610;49.022;12.114;2023-05-07T03:38:42;19.47;;;11.73;;
18793;SDS011;29610;49.022;12.114;2023-05-07T03:41:32;23.83;;;11.27;;
18793;SDS011;29610;49.022;12.114;2023-05-07T03:44:21;22.93;;;12.30;;
18793;SDS011;29610;49.022;12.114;2023-05-07T03:47:11;17.03;;;10.70;;
18793;SDS011;29610;49.022;12.114;2023-05-07T03:50:00;20.60;;;11.33;;
18793;SDS011;29610;49.022;12.114;2023-05-07T03:52:49;19.23;;;10.40;;
18793;SDS011;29610;49.022;12.114;2023-05-07T03:55:42;21.53;;;10.07;;
18793;SDS011;29610;49.022;12.114;2023-05-07T03:58:31;17.63;;;10.23;;
18793;SDS011;29610;49.022;12.114;2023-05-07T04:01:25;17.73;;;10.27;;
18793;SDS011;29610;49.022;12.114;2023-05-07T04:04:14;20.67;;;10.03;;
18793;SDS011;29610;49.022;12.114;2023-05-07T04:07:03;18.77;;;10.10;;
18793;SDS011;29610;49.022;12.114;2023-05-07T04:09:57;19.70;;;9.77;;
18793;SDS011;29610;49.022;12.114;2023-05-07T04:12:47;20.33;;;10.50;;
18793;SDS011;29610;49.022;12.114;2023-05-07T04:15:40;17.97;;;9.70;;
18793;SDS011;29610;49.022;12.114;2023-05-07T04:18:32;17.07;;;10.20;;
18793;SDS011;29610;49.022;12.114;2023-05-07T04:21:21;18.10;;;9.47;;
18793;SDS011;29610;49.022;12.114;2023-05-07T04:24:11;18.07;;;10.43;;
18793;SDS011;29610;49.022;12.114;2023-05-07T04:27:00;21.10;;;10.27;;
18793;SDS011;29610;49.022;12.114;2023-05-07T04:29:50;19.30;;;9.53;;
18793;SDS011;29610;49.022;12.114;2023-05-07T04:32:42;19.70;;;10.40;;
18793;SDS011;29610;49.022;12.114;2023-05-07T04:35:32;18.40;;;10.53;;
18793;SDS011;29610;49.022;12.114;2023-05-07T04:38:21;18.93;;;10.30;;
18793;SDS011;29610;49.022;12.114;2023-05-07T04:41:12;15.90;;;9.70;;
18793;SDS011;29610;49.022;12.114;2023-05-07T04:44:02;17.20;;;10.03;;
18793;SDS011;29610;49.022;12.114;2023-05-07T04:46:55;16.70;;;10.00;;
18793;SDS011;29610;49.022;12.114;2023-05-07T04:49:44;22.10;;;11.30;;
18793;SDS011;29610;49.022;12.114;2023-05-07T04:52:33;14.13;;;8.83;;
18793;SDS011;29610;49.022;12.114;2023-05-07T04:55:22;18.83;;;11.83;;
18793;SDS011;29610;49.022;12.114;2023-05-07T04:58:11;16.37;;;9.77;;
18793;SDS011;29610;49.022;12.114;2023-05-07T05:01:02;21.10;;;11.17;;
18793;SDS011;29610;49.022;12.114;2023-05-07T05:03:53;17.50;;;10.67;;
18793;SDS011;29610;49.022;12.114;2023-05-07T05:06:42;19.27;;;11.47;;
18793;SDS011;29610;49.022;12.114;2023-05-07T05:09:32;17.40;;;10.97;;
18793;SDS011;29610;49.022;12.114;2023-05-07T05:12:21;17.33;;;9.50;;
18793;SDS011;29610;49.022;12.114;2023-05-07T05:15:10;17.07;;;9.80;;
18793;SDS011;29610;49.022;12.114;2023-05-07T05:18:01;18.13;;;9.27;;
18793;SDS011;29610;49.022;12.114;2023-05-07T05:20:52;21.90;;;9.93;;
18793;SDS011;29610;49.022;12.114;2023-05-07T05:23:43;14.20;;;9.13;;
18793;SDS011;29610;49.022;12.114;2023-05-07T05:26:33;17.33;;;9.17;;
18793;SDS011;29610;49.022;12.114;2023-05-07T05:29:25;14.73;;;8.10;;
18793;SDS011;29610;49.022;12.114;2023-05-07T05:32:17;17.40;;;9.83;;
18793;SDS011;29610;49.022;12.114;2023-05-07T05:35:08;19.30;;;9.50;;
18793;SDS011;29610;49.022;12.114;2023-05-07T05:37:59;16.57;;;9.00;;
18793;SDS011;29610;49.022;12.114;2023-05-07T05:40:48;16.53;;;9.43;;
18793;SDS011;29610;49.022;12.114;2023-05-07T05:43:37;14.63;;;8.50;;
18793;SDS011;29610;49.022;12.114;2023-05-07T05:46:30;17.27;;;9.50;;
18793;SDS011;29610;49.022;12.114;2023-05-07T05:49:22;17.20;;;9.03;;
18793;SDS011;29610;49.022;12.114;2023-05-07T05:52:13;16.00;;;8.67;;
18793;SDS011;29610;49.022;12.114;2023-05-07T05:55:05;18.40;;;8.90;;
18793;SDS011;29610;49.022;12.114;2023-05-07T05:57:56;14.00;;;8.20;;
18793;SDS011;29610;49.022;12.114;2023-05-07T06:00:49;15.30;;;7.80;;
18793;SDS011;29610;49.022;12.114;2023-05-07T06:03:41;13.90;;;7.90;;
18793;SDS011;29610;49.022;12.114;2023-05-07T06:06:33;16.63;;;8.50;;
18793;SDS011;29610;49.022;12.114;2023-05-07T06:09:24;19.43;;;9.90;;
18793;SDS011;29610;49.022;12.114;2023-05-07T06:12:14;16.90;;;9.17;;
18793;SDS011;29610;49.022;12.114;2023-05-07T06:15:04;18.23;;;9.17;;
18793;SDS011;29610;49.022;12.114;2023-05-07T06:17:54;17.13;;;9.33;;
18793;SDS011;29610;49.022;12.114;2023-05-07T06:20:44;14.50;;;8.60;;
18793;SDS011;29610;49.022;12.114;2023-05-07T06:23:42;17.23;;;9.90;;
18793;SDS011;29610;49.022;12.114;2023-05-07T06:26:31;18.77;;;8.70;;
18793;SDS011;29610;49.022;12.114;2023-05-07T06:29:21;16.20;;;8.33;;
18793;SDS011;29610;49.022;12.114;2023-05-07T06:32:12;16.73;;;7.90;;
18793;SDS011;29610;49.022;12.114;2023-05-07T06:35:04;16.30;;;8.53;;
18793;SDS011;29610;49.022;12.114;2023-05-07T06:37:56;15.70;;;9.27;;
18793;SDS011;29610;49.022;12.114;2023-05-07T06:40:49;15.20;;;8.73;;
18793;SDS011;29610;49.022;12.114;2023-05-07T06:43:43;13.80;;;7.37;;
18793;SDS011;29610;49.022;12.114;2023-05-07T06:46:52;14.07;;;7.10;;
18793;SDS011;29610;49.022;12.114;2023-05-07T06:49:40;13.03;;;7.00;;
18793;SDS011;29610;49.022;12.114;2023-05-07T06:52:34;16.23;;;6.90;;
18793;SDS011;29610;49.022;12.114;2023-05-07T06:55:24;13.97;;;7.30;;
18793;SDS011;29610;49.022;12.114;2023-05-07T06:58:15;17.30;;;7.13;;
18793;SDS011;29610;49.022;12.114;2023-05-07T07:01:04;12.40;;;6.57;;
18793;SDS011;29610;49.022;12.114;2023-05-07T07:03:55;11.90;;;6.10;;
18793;SDS011;29610;49.022;12.114;2023-05-07T07:06:45;15.97;;;7.10;;
18793;SDS011;29610;49.022;12.114;2023-05-07T07:09:35;12.23;;;6.37;;
18793;SDS011;29610;49.022;12.114;2023-05-07T07:12:26;11.60;;;5.70;;
18793;SDS011;29610;49.022;12.114;2023-05-07T07:15:17;12.40;;;6.77;;
18793;SDS011;29610;49.022;12.114;2023-05-07T07:37:21;14.00;;;7.33;;
18793;SDS011;29610;49.022;12.114;2023-05-07T07:40:18;15.57;;;7.37;;
18793;SDS011;29610;49.022;12.114;2023-05-07T07:43:13;13.00;;;6.30;;
18793;SDS011;29610;49.022;12.114;2023-05-07T07:46:13;13.10;;;6.60;;
18793;SDS011;29610;49.022;12.114;2023-05-07T07:49:07;14.77;;;6.57;;
18793;SDS011;29610;49.022;12.114;2023-05-07T07:52:05;11.97;;;5.80;;
18793;SDS011;29610;49.022;12.114;2023-05-07T07:55:05;15.73;;;7.40;;
18793;SDS011;29610;49.022;12.114;2023-05-07T07:58:01;12.17;;;5.97;;
18793;SDS011;29610;49.022;12.114;2023-05-07T08:00:56;15.70;;;6.63;;
18793;SDS011;29610;49.022;12.114;2023-05-07T08:03:54;11.50;;;5.93;;
18793;SDS011;29610;49.022;12.114;2023-05-07T08:06:50;13.83;;;6.70;;
18793;SDS011;29610;49.022;12.114;2023-05-07T08:09:46;14.50;;;6.70;;
18793;SDS011;29610;49.022;12.114;2023-05-07T08:12:47;13.57;;;6.43;;
18793;SDS011;29610;49.022;12.114;2023-05-07T08:15:42;13.50;;;6.77;;
18793;SDS011;29610;49.022;12.114;2023-05-07T08:18:37;14.60;;;7.40;;
18793;SDS011;29610;49.022;12.114;2023-05-07T08:21:31;14.50;;;7.33;;
18793;SDS011;29610;49.022;12.114;2023-05-07T08:24:32;13.63;;;6.80;;
18793;SDS011;29610;49.022;12.114;2023-05-07T08:27:28;14.50;;;6.33;;
18793;SDS011;29610;49.022;12.114;2023-05-07T08:30:27;14.07;;;7.70;;
18793;SDS011;29610;49.022;12.114;2023-05-07T08:33:21;17.83;;;6.77;;
18793;SDS011;29610;49.022;12.114;2023-05-07T08:36:53;14.37;;;7.60;;
18793;SDS011;29610;49.022;12.114;2023-05-07T08:40:37;13.83;;;7.67;;
18793;SDS011;29610;49.022;12.114;2023-05-07T08:45:08;14.50;;;6.53;;
18793;SDS011;29610;49.022;12.114;2023-05-07T08:53:06;18.00;;;6.80;;
18793;SDS011;29610;49.022;12.114;2023-05-07T08:56:23;12.63;;;6.60;;
18793;SDS011;29610;49.022;12.114;2023-05-07T08:59:17;15.73;;;9.03;;
18793;SDS011;29610;49.022;12.114;2023-05-07T09:02:11;15.10;;;7.20;;
18793;SDS011;29610;49.022;12.114;2023-05-07T09:05:07;13.13;;;6.37;;
18793;SDS011;29610;49.022;12.114;2023-05-07T09:08:09;16.57;;;8.30;;
18793;SDS011;29610;49.022;12.114;2023-05-07T09:11:08;11.97;;;6.03;;
18793;SDS011;29610;49.022;12.114;2023-05-07T09:14:04;17.90;;;5.83;;
18793;SDS011;29610;49.022;12.114;2023-05-07T09:17:04;14.83;;;7.57;;
18793;SDS011;29610;49.022;12.114;2023-05-07T09:39:05;13.47;;;6.50;;
18793;SDS011;29610;49.022;12.114;2023-05-07T09:48:19;13.23;;;5.90;;
18793;SDS011;29610;49.022;12.114;2023-05-07T09:52:21;11.83;;;6.20;;
18793;SDS011;29610;49.022;12.114;2023-05-07T09:56:04;13.80;;;6.17;;
18793;SDS011;29610;49.022;12.114;2023-05-07T09:59:35;13.00;;;6.70;;
18793;SDS011;29610;49.022;12.114;2023-05-07T10:03:08;12.40;;;6.17;;
18793;SDS011;29610;49.022;12.114;2023-05-07T10:06:14;14.87;;;7.00;;
18793;SDS011;29610;49.022;12.114;2023-05-07T10:09:11;11.63;;;5.93;;
18793;SDS011;29610;49.022;12.114;2023-05-07T10:12:06;12.73;;;6.27;;
18793;SDS011;29610;49.022;12.114;2023-05-07T10:15:03;12.10;;;5.17;;
18793;SDS011;29610;49.022;12.114;2023-05-07T10:18:10;11.77;;;5.10;;
18793;SDS011;29610;49.022;12.114;2023-05-07T10:21:13;11.30;;;5.33;;
18793;SDS011;29610;49.022;12.114;2023-05-07T10:24:16;11.10;;;5.37;;
18793;SDS011;29610;49.022;12.114;2023-05-07T10:27:20;11.97;;;5.83;;
18793;SDS011;29610;49.022;12.114;2023-05-07T10:30:19;11.40;;;5.70;;
18793;SDS011;29610;49.022;12.114;2023-05-07T10:33:28;11.80;;;5.47;;
18793;SDS011;29610;49.022;12.114;2023-05-07T10:36:32;11.77;;;5.53;;
18793;SDS011;29610;49.022;12.114;2023-05-07T10:39:29;13.00;;;6.23;;
18793;SDS011;29610;49.022;12.114;2023-05-07T10:42:31;19.47;;;10.20;;
18793;SDS011;29610;49.022;12.114;2023-05-07T11:03:16;13.73;;;6.23;;
18793;SDS011;29610;49.022;12.114;2023-05-07T11:07:37;12.47;;;5.10;;
18793;SDS011;29610;49.022;12.114;2023-05-07T11:11:47;12.07;;;5.50;;
18793;SDS011;29610;49.022;12.114;2023-05-07T11:15:44;14.53;;;5.10;;
18793;SDS011;29610;49.022;12.114;2023-05-07T11:29:15;14.47;;;5.80;;
18793;SDS011;29610;49.022;12.114;2023-05-07T11:41:01;11.90;;;6.10;;
18793;SDS011;29610;49.022;12.114;2023-05-07T11:49:50;11.70;;;4.67;;
18793;SDS011;29610;49.022;12.114;2023-05-07T11:58:26;10.13;;;3.80;;
18793;SDS011;29610;49.022;12.114;2023-05-07T12:02:39;11.60;;;4.23;;
18793;SDS011;29610;49.022;12.114;2023-05-07T12:20:16;8.97;;;3.47;;
18793;SDS011;29610;49.022;12.114;2023-05-07T12:24:44;8.23;;;2.80;;
18793;SDS011;29610;49.022;12.114;2023-05-07T12:29:00;11.53;;;3.93;;
18793;SDS011;29610;49.022;12.114;2023-05-07T12:32:21;10.30;;;3.63;;
18793;SDS011;29610;49.022;12.114;2023-05-07T12:35:48;9.23;;;4.00;;
18793;SDS011;29610;49.022;12.114;2023-05-07T12:39:10;10.27;;;3.87;;
18793;SDS011;29610;49.022;12.114;2023-05-07T12:42:37;8.93;;;3.50;;
18793;SDS011;29610;49.022;12.114;2023-05-07T12:46:04;9.57;;;3.90;;
18793;SDS011;29610;49.022;12.114;2023-05-07T12:49:06;9.70;;;3.50;;
18793;SDS011;29610;49.022;12.114;2023-05-07T12:52:00;13.00;;;4.00;;
18793;SDS011;29610;49.022;12.114;2023-05-07T12:58:28;8.80;;;3.40;;
18793;SDS011;29610;49.022;12.114;2023-05-07T13:01:47;9.80;;;3.47;;
18793;SDS011;29610;49.022;12.114;2023-05-07T13:05:19;9.93;;;3.67;;
18793;SDS011;29610;49.022;12.114;2023-05-07T13:08:37;9.97;;;3.37;;
18793;SDS011;29610;49.022;12.114;2023-05-07T13:12:13;12.80;;;3.20;;
18793;SDS011;29610;49.022;12.114;2023-05-07T13:15:37;8.30;;;3.10;;
18793;SDS011;29610;49.022;12.114;2023-05-07T13:19:10;9.47;;;3.77;;
18793;SDS011;29610;49.022;12.114;2023-05-07T13:26:01;9.90;;;2.93;;
18793;SDS011;29610;49.022;12.114;2023-05-07T13:29:52;8.40;;;2.70;;
18793;SDS011;29610;49.022;12.114;2023-05-07T13:32:56;9.70;;;3.53;;
18793;SDS011;29610;49.022;12.114;2023-05-07T13:36:09;8.90;;;3.30;;
18793;SDS011;29610;49.022;12.114;2023-05-07T13:39:26;9.93;;;3.10;;
18793;SDS011;29610;49.022;12.114;2023-05-07T13:42:23;9.70;;;3.20;;
18793;SDS011;29610;49.022;12.114;2023-05-07T13:45:43;9.47;;;3.00;;
18793;SDS011;29610;49.022;12.114;2023-05-07T13:48:40;9.77;;;3.17;;
18793;SDS011;29610;49.022;12.114;2023-05-07T13:52:00;8.13;;;2.63;;
18793;SDS011;29610;49.022;12.114;2023-05-07T13:55:03;8.03;;;2.50;;
18793;SDS011;29610;49.022;12.114;2023-05-07T13:57:57;8.40;;;2.53;;
18793;SDS011;29610;49.022;12.114;2023-05-07T14:00:56;8.80;;;2.90;;
18793;SDS011;29610;49.022;12.114;2023-05-07T14:03:50;14.10;;;3.50;;
18793;SDS011;29610;49.022;12.114;2023-05-07T14:06:44;9.20;;;3.07;;
18793;SDS011;29610;49.022;12.114;2023-05-07T14:09:45;12.17;;;3.50;;
18793;SDS011;29610;49.022;12.114;2023-05-07T14:12:43;12.20;;;3.47;;
18793;SDS011;29610;49.022;12.114;2023-05-07T14:15:37;11.67;;;3.53;;
18793;SDS011;29610;49.022;12.114;2023-05-07T14:18:40;12.37;;;3.50;;
18793;SDS011;29610;49.022;12.114;2023-05-07T14:21:47;9.50;;;3.17;;
18793;SDS011;29610;49.022;12.114;2023-05-07T14:35:22;10.57;;;3.60;;
18793;SDS011;29610;49.022;12.114;2023-05-07T14:39:02;8.70;;;3.37;;
18793;SDS011;29610;49.022;12.114;2023-05-07T14:42:40;8.67;;;3.20;;
18793;SDS011;29610;49.022;12.114;2023-05-07T14:46:08;10.60;;;4.17;;
18793;SDS011;29610;49.022;12.114;2023-05-07T14:49:26;9.33;;;3.97;;
18793;SDS011;29610;49.022;12.114;2023-05-07T14:58:12;12.07;;;5.03;;
18793;SDS011;29610;49.022;12.114;2023-05-07T15:01:36;12.83;;;4.50;;
18793;SDS011;29610;49.022;12.114;2023-05-07T15:04:34;10.40;;;3.93;;
18793;SDS011;29610;49.022;12.114;2023-05-07T15:07:46;9.17;;;4.00;;
18793;SDS011;29610;49.022;12.114;2023-05-07T15:10:41;10.23;;;4.30;;
18793;SDS011;29610;49.022;12.114;2023-05-07T15:13:36;11.50;;;4.50;;
18793;SDS011;29610;49.022;12.114;2023-05-07T15:16:29;10.93;;;4.70;;
18793;SDS011;29610;49.022;12.114;2023-05-07T15:19:27;11.90;;;4.60;;
18793;SDS011;29610;49.022;12.114;2023-05-07T15:22:23;11.43;;;4.47;;
18793;SDS011;29610;49.022;12.114;2023-05-07T15:25:19;14.67;;;5.13;;
18793;SDS011;29610;49.022;12.114;2023-05-07T15:28:14;12.33;;;5.30;;
18793;SDS011;29610;49.022;12.114;2023-05-07T15:34:54;9.70;;;4.60;;
18793;SDS011;29610;49.022;12.114;2023-05-07T15:38:22;10.93;;;4.60;;
18793;SDS011;29610;49.022;12.114;2023-05-07T15:41:33;10.63;;;5.17;;
18793;SDS011;29610;49.022;12.114;2023-05-07T15:45:18;11.30;;;5.03;;
18793;SDS011;29610;49.022;12.114;2023-05-07T15:52:23;13.10;;;5.67;;
18793;SDS011;29610;49.022;12.114;2023-05-07T15:55:59;11.50;;;5.80;;
18793;SDS011;29610;49.022;12.114;2023-05-07T15:59:36;11.07;;;5.30;;
18793;SDS011;29610;49.022;12.114;2023-05-07T16:03:13;17.67;;;4.70;;
18793;SDS011;29610;49.022;12.114;2023-05-07T16:06:53;15.83;;;6.30;;
18793;SDS011;29610;49.022;12.114;2023-05-07T16:14:41;15.10;;;5.77;;
18793;SDS011;29610;49.022;12.114;2023-05-07T16:18:54;14.47;;;6.07;;
18793;SDS011;29610;49.022;12.114;2023-05-07T16:30:45;12.07;;;5.60;;
18793;SDS011;29610;49.022;12.114;2023-05-07T16:58:08;16.77;;;5.20;;
18793;SDS011;29610;49.022;12.114;2023-05-07T17:01:57;12.00;;;5.13;;
18793;SDS011;29610;49.022;12.114;2023-05-07T17:04:57;11.40;;;5.23;;
18793;SDS011;29610;49.022;12.114;2023-05-07T17:07:57;11.20;;;5.07;;
18793;SDS011;29610;49.022;12.114;2023-05-07T17:10:58;12.67;;;5.23;;
18793;SDS011;29610;49.022;12.114;2023-05-07T17:14:53;13.50;;;6.10;;
18793;SDS011;29610;49.022;12.114;2023-05-07T17:17:42;16.37;;;5.50;;
18793;SDS011;29610;49.022;12.114;2023-05-07T17:20:33;14.27;;;6.80;;
18793;SDS011;29610;49.022;12.114;2023-05-07T17:23:22;12.60;;;6.20;;
18793;SDS011;29610;49.022;12.114;2023-05-07T17:26:12;13.67;;;6.13;;
18793;SDS011;29610;49.022;12.114;2023-05-07T17:29:01;12.43;;;5.70;;
18793;SDS011;29610;49.022;12.114;2023-05-07T17:31:50;11.20;;;5.50;;
18793;SDS011;29610;49.022;12.114;2023-05-07T17:34:39;14.20;;;5.73;;
18793;SDS011;29610;49.022;12.114;2023-05-07T17:37:28;12.80;;;6.70;;
18793;SDS011;29610;49.022;12.114;2023-05-07T17:40:47;12.27;;;6.37;;
18793;SDS011;29610;49.022;12.114;2023-05-07T17:43:37;14.83;;;7.07;;
18793;SDS011;29610;49.022;12.114;2023-05-07T17:46:25;13.37;;;6.50;;
18793;SDS011;29610;49.022;12.114;2023-05-07T17:49:14;15.00;;;7.07;;
18793;SDS011;29610;49.022;12.114;2023-05-07T17:52:05;16.10;;;6.97;;
18793;SDS011;29610;49.022;12.114;2023-05-07T17:54:55;13.73;;;6.70;;
18793;SDS011;29610;49.022;12.114;2023-05-07T17:57:45;12.67;;;5.90;;
18793;SDS011;29610;49.022;12.114;2023-05-07T18:00:34;13.33;;;7.00;;
18793;SDS011;29610;49.022;12.114;2023-05-07T18:03:24;13.73;;;6.90;;
18793;SDS011;29610;49.022;12.114;2023-05-07T18:06:16;14.03;;;6.70;;
18793;SDS011;29610;49.022;12.114;2023-05-07T18:09:06;15.67;;;7.70;;
18793;SDS011;29610;49.022;12.114;2023-05-07T18:11:55;17.53;;;6.63;;
18793;SDS011;29610;49.022;12.114;2023-05-07T18:14:46;18.03;;;7.77;;
18793;SDS011;29610;49.022;12.114;2023-05-07T18:17:35;12.10;;;6.47;;
18793;SDS011;29610;49.022;12.114;2023-05-07T18:20:24;12.37;;;6.43;;
18793;SDS011;29610;49.022;12.114;2023-05-07T18:23:13;13.57;;;7.23;;
18793;SDS011;29610;49.022;12.114;2023-05-07T18:26:02;16.03;;;8.07;;
18793;SDS011;29610;49.022;12.114;2023-05-07T18:28:54;13.33;;;6.63;;
18793;SDS011;29610;49.022;12.114;2023-05-07T18:31:47;14.40;;;7.27;;
18793;SDS011;29610;49.022;12.114;2023-05-07T18:34:35;14.37;;;7.20;;
18793;SDS011;29610;49.022;12.114;2023-05-07T18:37:24;16.83;;;8.97;;
18793;SDS011;29610;49.022;12.114;2023-05-07T18:40:13;14.13;;;7.30;;
18793;SDS011;29610;49.022;12.114;2023-05-07T18:43:02;16.20;;;8.30;;
18793;SDS011;29610;49.022;12.114;2023-05-07T18:45:54;16.80;;;8.90;;
18793;SDS011;29610;49.022;12.114;2023-05-07T18:48:44;15.90;;;8.37;;
18793;SDS011;29610;49.022;12.114;2023-05-07T18:51:33;17.33;;;7.93;;
18793;SDS011;29610;49.022;12.114;2023-05-07T18:54:25;14.73;;;7.40;;
18793;SDS011;29610;49.022;12.114;2023-05-07T18:57:17;15.37;;;7.73;;
18793;SDS011;29610;49.022;12.114;2023-05-07T19:00:06;15.23;;;7.27;;
18793;SDS011;29610;49.022;12.114;2023-05-07T19:02:59;14.23;;;7.03;;
18793;SDS011;29610;49.022;12.114;2023-05-07T19:05:49;14.57;;;7.63;;
18793;SDS011;29610;49.022;12.114;2023-05-07T19:08:38;14.20;;;7.57;;
18793;SDS011;29610;49.022;12.114;2023-05-07T19:11:28;15.87;;;7.63;;
18793;SDS011;29610;49.022;12.114;2023-05-07T19:14:17;15.10;;;7.60;;
18793;SDS011;29610;49.022;12.114;2023-05-07T19:17:07;14.37;;;7.30;;
18793;SDS011;29610;49.022;12.114;2023-05-07T19:19:56;13.40;;;6.90;;
18793;SDS011;29610;49.022;12.114;2023-05-07T19:22:46;15.23;;;7.07;;
18793;SDS011;29610;49.022;12.114;2023-05-07T19:25:35;13.70;;;7.20;;
18793;SDS011;29610;49.022;12.114;2023-05-07T19:28:24;16.30;;;6.93;;
18793;SDS011;29610;49.022;12.114;2023-05-07T19:31:17;14.10;;;6.83;;
18793;SDS011;29610;49.022;12.114;2023-05-07T19:34:07;14.60;;;7.70;;
18793;SDS011;29610;49.022;12.114;2023-05-07T19:36:56;13.50;;;6.47;;
18793;SDS011;29610;49.022;12.114;2023-05-07T19:39:46;16.43;;;7.40;;
18793;SDS011;29610;49.022;12.114;2023-05-07T19:42:34;13.70;;;6.20;;
18793;SDS011;29610;49.022;12.114;2023-05-07T19:45:23;21.07;;;7.17;;
18793;SDS011;29610;49.022;12.114;2023-05-07T19:48:13;13.97;;;7.20;;
18793;SDS011;29610;49.022;12.114;2023-05-07T19:51:03;13.40;;;6.63;;
18793;SDS011;29610;49.022;12.114;2023-05-07T19:53:55;13.97;;;6.40;;
18793;SDS011;29610;49.022;12.114;2023-05-07T19:56:45;12.60;;;6.70;;
18793;SDS011;29610;49.022;12.114;2023-05-07T19:59:36;11.30;;;5.33;;
18793;SDS011;29610;49.022;12.114;2023-05-07T20:02:25;13.30;;;6.33;;
18793;SDS011;29610;49.022;12.114;2023-05-07T20:05:14;12.37;;;5.50;;
18793;SDS011;29610;49.022;12.114;2023-05-07T20:08:03;14.17;;;6.17;;
18793;SDS011;29610;49.022;12.114;2023-05-07T20:10:55;11.17;;;5.33;;
18793;SDS011;29610;49.022;12.114;2023-05-07T20:13:47;12.60;;;6.30;;
18793;SDS011;29610;49.022;12.114;2023-05-07T20:16:36;11.23;;;5.50;;
18793;SDS011;29610;49.022;12.114;2023-05-07T20:19:25;12.60;;;5.70;;
18793;SDS011;29610;49.022;12.114;2023-05-07T20:22:15;12.27;;;5.80;;
18793;SDS011;29610;49.022;12.114;2023-05-07T20:25:06;12.90;;;5.80;;